Time;durP1;ratioP1;P1;durP2;ratioP2;P2;SDS_P1;SDS_P2;PMS_P1;PMS_P2;Temp;Humidity;BMP_temperature;BMP_pressure;BME280_temperature;BME280_humidity;BME280_pressure;Samples;Min_cycle;Max_cycle;Signal;HPM_P1;HPM_P2
2020/12/15 00:01:30;;;;;;;0.20;0.20;;;;;;;;;;5002810;28;20223;-74
2020/12/15 00:03:56;;;;;;;0.20;0.20;;;;;;;;;;5014583;28;20261;-74
2020/12/15 00:06:22;;;;;;;0.40;0.40;;;;;;;;;;5020728;28;20279;-74
2020/12/15 00:08:49;;;;;;;0.20;0.20;;;;;;;;;;5016216;28;20246;-73
2020/12/15 00:11:18;;;;;;;0.20;0.20;;;;;;;;;;5002275;28;20202;-74
2020/12/15 00:13:46;;;;;;;0.30;0.30;;;;;;;;;;5003782;28;20285;-74
2020/12/15 00:16:17;;;;;;;0.20;0.20;;;;;;;;;;4992948;28;20227;-74
2020/12/15 00:18:43;;;;;;;0.23;0.23;;;;;;;;;;5002826;28;20203;-74
2020/12/15 00:21:10;;;;;;;1.93;1.53;;;;;;;;;;5033884;28;20343;-74
2020/12/15 00:23:36;;;;;;;4.17;4.00;;;;;;;;;;4987452;28;20356;-74
2020/12/15 00:26:02;;;;;;;0.20;0.20;;;;;;;;;;5002488;28;20211;-74
2020/12/15 00:28:29;;;;;;;0.20;0.20;;;;;;;;;;5005432;28;20207;-74
2020/12/15 00:30:56;;;;;;;0.20;0.20;;;;;;;;;;5016365;28;20225;-74
2020/12/15 00:33:22;;;;;;;0.30;0.30;;;;;;;;;;4985221;28;20273;-74
2020/12/15 00:35:49;;;;;;;0.30;0.30;;;;;;;;;;5015499;28;20222;-74
2020/12/15 00:38:15;;;;;;;0.20;0.20;;;;;;;;;;5015319;28;20235;-73
2020/12/15 00:40:41;;;;;;;8.40;6.60;;;;;;;;;;5022112;28;20252;-74
2020/12/15 00:43:08;;;;;;;0.20;0.20;;;;;;;;;;5007574;28;20235;-76
2020/12/15 00:45:34;;;;;;;0.20;0.20;;;;;;;;;;4998855;28;20198;-73
2020/12/15 00:48:02;;;;;;;0.20;0.20;;;;;;;;;;5003546;28;20237;-73
2020/12/15 00:50:28;;;;;;;0.53;0.53;;;;;;;;;;5019629;28;20203;-75
2020/12/15 00:52:55;;;;;;;0.20;0.20;;;;;;;;;;5024575;28;20211;-73
2020/12/15 00:55:21;;;;;;;0.63;0.63;;;;;;;;;;5015466;28;20202;-75
2020/12/15 00:57:48;;;;;;;0.10;0.10;;;;;;;;;;5007092;28;20202;-75
2020/12/15 01:00:14;;;;;;;0.20;0.20;;;;;;;;;;5037424;28;20361;-74
2020/12/15 01:02:41;;;;;;;0.20;0.20;;;;;;;;;;5016829;28;20391;-74
2020/12/15 01:05:08;;;;;;;0.20;0.20;;;;;;;;;;5007911;28;20235;-74
2020/12/15 01:07:34;;;;;;;0.37;0.37;;;;;;;;;;5015764;28;20207;-74
2020/12/15 01:10:00;;;;;;;0.20;0.20;;;;;;;;;;5001648;28;20211;-74
2020/12/15 01:12:27;;;;;;;0.13;0.13;;;;;;;;;;4981136;28;20296;-74
2020/12/15 01:14:54;;;;;;;1.37;1.27;;;;;;;;;;5015107;28;20204;-74
2020/12/15 01:17:20;;;;;;;0.20;0.20;;;;;;;;;;5017053;28;20379;-74
2020/12/15 01:19:47;;;;;;;0.20;0.20;;;;;;;;;;5016583;28;20197;-74
2020/12/15 01:22:14;;;;;;;0.20;0.20;;;;;;;;;;4983160;28;20493;-74
2020/12/15 01:24:40;;;;;;;0.20;0.20;;;;;;;;;;5014963;28;20206;-74
2020/12/15 01:27:07;;;;;;;0.20;0.20;;;;;;;;;;5021879;28;20205;-74
2020/12/15 01:29:34;;;;;;;0.40;0.40;;;;;;;;;;4984823;28;20202;-74
2020/12/15 01:32:00;;;;;;;0.20;0.20;;;;;;;;;;5011227;28;20209;-74
2020/12/15 01:34:27;;;;;;;0.20;0.20;;;;;;;;;;5001304;28;20202;-74
2020/12/15 01:36:53;;;;;;;0.20;0.20;;;;;;;;;;5000654;28;20219;-74
2020/12/15 01:39:21;;;;;;;0.20;0.20;;;;;;;;;;5019315;28;20203;-74
2020/12/15 01:41:47;;;;;;;0.20;0.20;;;;;;;;;;5007338;28;20359;-75
2020/12/15 01:44:14;;;;;;;0.37;0.37;;;;;;;;;;5015709;28;20512;-74
2020/12/15 01:46:40;;;;;;;0.93;0.47;;;;;;;;;;5014410;28;20431;-74
2020/12/15 01:49:08;;;;;;;0.20;0.20;;;;;;;;;;5017516;28;20498;-74
2020/12/15 01:51:34;;;;;;;0.20;0.20;;;;;;;;;;4983533;28;20214;-74
2020/12/15 01:54:01;;;;;;;1.03;1.03;;;;;;;;;;5015544;28;20268;-74
2020/12/15 01:56:28;;;;;;;1.03;1.03;;;;;;;;;;5003632;28;20230;-74
2020/12/15 01:58:55;;;;;;;2.33;2.17;;;;;;;;;;5000919;28;20207;-74
2020/12/15 02:01:22;;;;;;;0.20;0.20;;;;;;;;;;5011938;28;20202;-74
2020/12/15 02:03:49;;;;;;;0.97;0.97;;;;;;;;;;5013864;28;20225;-74
2020/12/15 02:06:15;;;;;;;0.20;0.20;;;;;;;;;;5014786;28;20480;-74
2020/12/15 02:08:42;;;;;;;0.20;0.20;;;;;;;;;;5007457;28;20229;-75
2020/12/15 02:11:09;;;;;;;0.20;0.20;;;;;;;;;;5031957;28;20302;-74
2020/12/15 02:13:36;;;;;;;0.20;0.20;;;;;;;;;;5016702;28;20230;-74
2020/12/15 02:16:03;;;;;;;0.20;0.20;;;;;;;;;;5016635;28;20222;-74
2020/12/15 02:18:29;;;;;;;0.30;0.30;;;;;;;;;;5001009;28;20202;-74
2020/12/15 02:20:55;;;;;;;0.50;0.50;;;;;;;;;;5031951;28;20204;-74
2020/12/15 02:23:22;;;;;;;0.10;0.10;;;;;;;;;;5007109;28;20266;-74
2020/12/15 02:25:48;;;;;;;0.30;0.30;;;;;;;;;;5030829;28;20429;-75
2020/12/15 02:28:15;;;;;;;0.43;0.43;;;;;;;;;;4982700;28;20211;-74
2020/12/15 02:30:41;;;;;;;0.20;0.20;;;;;;;;;;5015702;28;20435;-74
2020/12/15 02:33:08;;;;;;;0.20;0.20;;;;;;;;;;4983070;28;20249;-74
2020/12/15 02:35:35;;;;;;;0.20;0.20;;;;;;;;;;5010012;28;20227;-75
2020/12/15 02:38:01;;;;;;;0.20;0.20;;;;;;;;;;4999217;28;20249;-74
2020/12/15 02:40:28;;;;;;;0.20;0.20;;;;;;;;;;5035545;28;20532;-74
2020/12/15 02:42:55;;;;;;;0.20;0.20;;;;;;;;;;4992597;28;20352;-74
2020/12/15 02:45:21;;;;;;;0.20;0.20;;;;;;;;;;5013655;28;20257;-74
2020/12/15 02:47:48;;;;;;;0.57;0.57;;;;;;;;;;4979149;28;20230;-75
2020/12/15 02:50:16;;;;;;;0.17;0.17;;;;;;;;;;4982675;28;20491;-74
2020/12/15 02:52:43;;;;;;;0.20;0.20;;;;;;;;;;5004367;28;20231;-75
2020/12/15 02:55:09;;;;;;;0.20;0.20;;;;;;;;;;5032547;28;20321;-75
2020/12/15 02:57:36;;;;;;;0.20;0.20;;;;;;;;;;4981958;28;20252;-75
2020/12/15 03:00:04;;;;;;;0.20;0.20;;;;;;;;;;5013686;28;20206;-75
2020/12/15 03:02:31;;;;;;;4.93;1.87;;;;;;;;;;4999908;28;20202;-75
2020/12/15 03:04:57;;;;;;;0.30;0.30;;;;;;;;;;5012996;28;20227;-75
2020/12/15 03:07:24;;;;;;;0.50;0.50;;;;;;;;;;5014371;28;20222;-75
2020/12/15 03:09:50;;;;;;;0.30;0.30;;;;;;;;;;5008828;28;20206;-75
2020/12/15 03:12:19;;;;;;;0.20;0.20;;;;;;;;;;4979320;28;20582;-76
2020/12/15 03:14:46;;;;;;;0.93;0.93;;;;;;;;;;5014512;28;20239;-75
2020/12/15 03:17:12;;;;;;;0.20;0.20;;;;;;;;;;4999009;28;20221;-75
2020/12/15 03:19:39;;;;;;;0.20;0.20;;;;;;;;;;5006099;28;20203;-75
2020/12/15 03:22:05;;;;;;;0.20;0.20;;;;;;;;;;5000359;28;20560;-76
2020/12/15 03:24:32;;;;;;;1.60;1.60;;;;;;;;;;4999902;28;20545;-75
2020/12/15 03:26:58;;;;;;;0.20;0.20;;;;;;;;;;5018223;28;20293;-75
2020/12/15 03:29:25;;;;;;;1.40;1.40;;;;;;;;;;5013620;28;20217;-76
2020/12/15 03:31:52;;;;;;;0.30;0.30;;;;;;;;;;5013603;28;20202;-75
2020/12/15 03:34:18;;;;;;;0.20;0.20;;;;;;;;;;5013716;28;20206;-75
2020/12/15 03:36:45;;;;;;;0.20;0.20;;;;;;;;;;5006278;28;20230;-75
2020/12/15 03:39:11;;;;;;;0.90;0.70;;;;;;;;;;5014549;28;20260;-75
2020/12/15 03:41:37;;;;;;;0.10;0.10;;;;;;;;;;4999526;28;20308;-75
2020/12/15 03:44:04;;;;;;;0.83;0.83;;;;;;;;;;5013943;28;20203;-76
2020/12/15 03:46:30;;;;;;;0.67;0.67;;;;;;;;;;5019960;28;20394;-76
2020/12/15 03:48:58;;;;;;;0.20;0.20;;;;;;;;;;5013925;28;20221;-75
2020/12/15 03:51:24;;;;;;;0.20;0.20;;;;;;;;;;5012529;28;20312;-76
2020/12/15 03:53:51;;;;;;;8.73;8.03;;;;;;;;;;5010678;28;20234;-76
2020/12/15 03:56:17;;;;;;;0.20;0.20;;;;;;;;;;5031080;28;20222;-75
2020/12/15 03:58:44;;;;;;;0.20;0.20;;;;;;;;;;5014516;28;20198;-75
2020/12/15 04:01:10;;;;;;;0.20;0.20;;;;;;;;;;5030840;28;20274;-75
2020/12/15 04:03:36;;;;;;;0.20;0.20;;;;;;;;;;4999234;28;20243;-75
2020/12/15 04:06:04;;;;;;;0.20;0.20;;;;;;;;;;5019199;28;20206;-76
2020/12/15 04:08:31;;;;;;;0.20;0.20;;;;;;;;;;5014095;28;20404;-75
2020/12/15 04:10:57;;;;;;;0.10;0.10;;;;;;;;;;5015146;28;20207;-75
2020/12/15 04:13:24;;;;;;;0.20;0.20;;;;;;;;;;4986734;28;20202;-76
2020/12/15 04:15:50;;;;;;;2.47;1.60;;;;;;;;;;5017116;28;20230;-76
2020/12/15 04:18:17;;;;;;;0.20;0.20;;;;;;;;;;5012942;28;20226;-75
2020/12/15 04:20:43;;;;;;;0.93;0.93;;;;;;;;;;5020823;28;20493;-75
2020/12/15 04:23:10;;;;;;;0.60;0.60;;;;;;;;;;5003982;28;20203;-76
2020/12/15 04:25:50;;;;;;;0.40;0.40;;;;;;;;;;5010783;28;20208;-76
2020/12/15 04:28:16;;;;;;;0.17;0.17;;;;;;;;;;4999480;28;20208;-75
2020/12/15 04:30:44;;;;;;;0.20;0.20;;;;;;;;;;4983168;28;20202;-75
2020/12/15 04:33:10;;;;;;;0.67;0.67;;;;;;;;;;5009728;28;20224;-76
2020/12/15 04:35:37;;;;;;;0.10;0.10;;;;;;;;;;5016211;28;20489;-77
2020/12/15 04:38:04;;;;;;;0.80;0.80;;;;;;;;;;5016500;28;20261;-76
2020/12/15 04:40:32;;;;;;;0.30;0.30;;;;;;;;;;5016778;28;20202;-76
2020/12/15 04:42:59;;;;;;;0.20;0.20;;;;;;;;;;5020064;28;20225;-75
2020/12/15 04:45:25;;;;;;;0.20;0.20;;;;;;;;;;5002343;28;20374;-76
2020/12/15 04:47:57;;;;;;;0.20;0.20;;;;;;;;;;4984697;28;20241;-77
2020/12/15 04:50:24;;;;;;;0.30;0.30;;;;;;;;;;5006688;28;20455;-75
2020/12/15 04:52:52;;;;;;;0.20;0.20;;;;;;;;;;5002555;28;20214;-76
2020/12/15 04:55:19;;;;;;;0.20;0.20;;;;;;;;;;5006150;28;20226;-75
2020/12/15 04:57:46;;;;;;;0.30;0.30;;;;;;;;;;5001819;28;20222;-76
2020/12/15 05:00:13;;;;;;;3.30;3.10;;;;;;;;;;5004505;28;20214;-76
2020/12/15 05:02:40;;;;;;;1.13;1.13;;;;;;;;;;5015869;28;20221;-76
2020/12/15 05:05:07;;;;;;;6.70;2.20;;;;;;;;;;5015608;28;20218;-76
2020/12/15 05:07:38;;;;;;;0.20;0.20;;;;;;;;;;5037911;28;20199;-76
2020/12/15 05:10:04;;;;;;;0.20;0.20;;;;;;;;;;5006638;28;20262;-76
2020/12/15 05:12:31;;;;;;;0.20;0.20;;;;;;;;;;5015040;28;20233;-76
2020/12/15 05:14:58;;;;;;;0.27;0.27;;;;;;;;;;5016413;28;20202;-76
2020/12/15 05:17:24;;;;;;;0.20;0.20;;;;;;;;;;5003516;28;20477;-76
2020/12/15 05:19:51;;;;;;;0.20;0.20;;;;;;;;;;5016526;28;20207;-76
2020/12/15 05:22:17;;;;;;;4.63;4.43;;;;;;;;;;4983782;28;20195;-76
2020/12/15 05:24:48;;;;;;;0.20;0.20;;;;;;;;;;5017033;28;20221;-76
2020/12/15 05:27:18;;;;;;;0.73;0.73;;;;;;;;;;5001564;28;20205;-76
2020/12/15 05:29:44;;;;;;;0.20;0.20;;;;;;;;;;4999356;28;20378;-76
2020/12/15 05:32:12;;;;;;;0.77;0.77;;;;;;;;;;5009743;28;20235;-76
2020/12/15 05:34:38;;;;;;;0.20;0.20;;;;;;;;;;5014474;28;20373;-76
2020/12/15 05:37:05;;;;;;;0.20;0.20;;;;;;;;;;5015738;28;20222;-76
2020/12/15 05:39:31;;;;;;;0.20;0.20;;;;;;;;;;5015611;28;20202;-76
2020/12/15 05:42:01;;;;;;;0.40;0.40;;;;;;;;;;5015814;28;20241;-77
2020/12/15 05:44:28;;;;;;;0.20;0.20;;;;;;;;;;5006589;28;20275;-76
2020/12/15 05:46:59;;;;;;;0.20;0.20;;;;;;;;;;5015520;28;20208;-76
2020/12/15 05:49:28;;;;;;;1.33;1.33;;;;;;;;;;4995907;28;20206;-76
2020/12/15 05:51:54;;;;;;;2.53;1.40;;;;;;;;;;4976727;28;20214;-74
2020/12/15 05:54:21;;;;;;;0.50;0.50;;;;;;;;;;5015569;28;20201;-74
2020/12/15 05:56:48;;;;;;;0.30;0.30;;;;;;;;;;4981948;28;20257;-75
2020/12/15 05:59:20;;;;;;;0.20;0.20;;;;;;;;;;4985395;28;20340;-75
2020/12/15 06:01:48;;;;;;;0.20;0.20;;;;;;;;;;5001310;28;20249;-75
2020/12/15 06:04:14;;;;;;;0.20;0.20;;;;;;;;;;5014923;28;20226;-74
2020/12/15 06:06:42;;;;;;;0.20;0.20;;;;;;;;;;4986531;28;20213;-75
2020/12/15 06:09:09;;;;;;;0.20;0.20;;;;;;;;;;5007555;28;20436;-74
2020/12/15 06:11:37;;;;;;;7.10;6.73;;;;;;;;;;5003832;28;20202;-73
2020/12/15 06:14:04;;;;;;;0.20;0.20;;;;;;;;;;5005951;28;20346;-74
2020/12/15 06:16:33;;;;;;;0.67;0.67;;;;;;;;;;5018951;28;20535;-74
2020/12/15 06:19:00;;;;;;;1.60;1.60;;;;;;;;;;4999726;28;20206;-75
2020/12/15 06:21:27;;;;;;;0.20;0.20;;;;;;;;;;5014613;28;20210;-75
2020/12/15 06:24:01;;;;;;;0.20;0.20;;;;;;;;;;5011546;28;20403;-75
2020/12/15 06:26:29;;;;;;;0.20;0.20;;;;;;;;;;4998987;28;20333;-74
2020/12/15 06:28:59;;;;;;;0.20;0.20;;;;;;;;;;5035596;28;20332;-75
2020/12/15 06:31:25;;;;;;;0.20;0.20;;;;;;;;;;5001403;28;20252;-75
2020/12/15 06:33:55;;;;;;;0.23;0.23;;;;;;;;;;5005376;28;20229;-75
2020/12/15 06:36:29;;;;;;;0.40;0.40;;;;;;;;;;4999317;28;20301;-75
2020/12/15 06:38:56;;;;;;;0.20;0.20;;;;;;;;;;4981371;28;20422;-75
2020/12/15 06:41:24;;;;;;;0.20;0.20;;;;;;;;;;5014597;28;20472;-75
2020/12/15 06:43:50;;;;;;;0.30;0.30;;;;;;;;;;5036337;28;20400;-75
2020/12/15 06:46:17;;;;;;;2.57;2.43;;;;;;;;;;5000078;28;20454;-75
2020/12/15 06:48:44;;;;;;;0.10;0.10;;;;;;;;;;4985740;28;20297;-75
2020/12/15 06:51:10;;;;;;;0.30;0.30;;;;;;;;;;5003319;28;20205;-75
2020/12/15 06:53:39;;;;;;;0.20;0.20;;;;;;;;;;5006981;28;20197;-76
2020/12/15 06:56:05;;;;;;;0.30;0.30;;;;;;;;;;5032515;28;20320;-76
2020/12/15 06:58:33;;;;;;;0.20;0.20;;;;;;;;;;5014236;28;20240;-75
2020/12/15 07:01:02;;;;;;;0.20;0.20;;;;;;;;;;5000380;28;20205;-75
2020/12/15 07:03:35;;;;;;;0.20;0.20;;;;;;;;;;5001149;28;20226;-75
2020/12/15 07:06:08;;;;;;;0.30;0.30;;;;;;;;;;4997033;28;20213;-75
2020/12/15 07:08:35;;;;;;;0.20;0.20;;;;;;;;;;5000450;28;20214;-75
2020/12/15 07:11:01;;;;;;;0.20;0.20;;;;;;;;;;4983302;28;20209;-75
2020/12/15 07:13:28;;;;;;;1.97;1.87;;;;;;;;;;5014585;28;20229;-75
2020/12/15 07:15:55;;;;;;;0.20;0.20;;;;;;;;;;5025307;28;20479;-75
2020/12/15 07:18:22;;;;;;;0.20;0.20;;;;;;;;;;5013745;28;20536;-75
2020/12/15 07:20:48;;;;;;;0.30;0.30;;;;;;;;;;4981574;28;20202;-75
2020/12/15 07:23:15;;;;;;;0.20;0.20;;;;;;;;;;5014686;28;20532;-70
2020/12/15 07:25:42;;;;;;;0.40;0.40;;;;;;;;;;5013962;28;20226;-73
2020/12/15 07:28:08;;;;;;;1.30;0.40;;;;;;;;;;5025441;28;20272;-73
2020/12/15 07:30:36;;;;;;;6.37;3.07;;;;;;;;;;5001473;28;20220;-74
2020/12/15 07:33:03;;;;;;;4.43;0.93;;;;;;;;;;4997318;28;20209;-75
2020/12/15 07:35:30;;;;;;;0.20;0.20;;;;;;;;;;4998198;28;20520;-74
2020/12/15 07:37:57;;;;;;;0.37;0.37;;;;;;;;;;5013696;28;20314;-76
2020/12/15 07:40:24;;;;;;;5.20;2.67;;;;;;;;;;5036067;28;20374;-76
2020/12/15 07:42:54;;;;;;;3.17;2.97;;;;;;;;;;5002805;28;20213;-76
2020/12/15 07:45:20;;;;;;;0.20;0.20;;;;;;;;;;5032761;28;20194;-76
2020/12/15 07:47:47;;;;;;;0.20;0.20;;;;;;;;;;4985393;28;20194;-75
2020/12/15 07:50:15;;;;;;;2.43;1.17;;;;;;;;;;5016618;28;20198;-75
2020/12/15 07:52:41;;;;;;;0.20;0.20;;;;;;;;;;5016770;28;20237;-77
2020/12/15 07:55:08;;;;;;;0.30;0.30;;;;;;;;;;5004454;28;20455;-75
2020/12/15 07:57:36;;;;;;;0.30;0.30;;;;;;;;;;5018638;28;20544;-69
2020/12/15 08:00:06;;;;;;;0.37;0.37;;;;;;;;;;4985757;28;20202;-76
2020/12/15 08:02:32;;;;;;;0.30;0.30;;;;;;;;;;5003243;28;20521;-77
2020/12/15 08:05:10;;;;;;;6.03;3.57;;;;;;;;;;5013033;28;20586;-76
2020/12/15 08:07:42;;;;;;;0.50;0.50;;;;;;;;;;5016736;28;20257;-76
2020/12/15 08:10:08;;;;;;;0.40;0.40;;;;;;;;;;5003023;28;20207;-76
2020/12/15 08:12:34;;;;;;;0.20;0.20;;;;;;;;;;5006160;28;20202;-76
2020/12/15 08:15:01;;;;;;;0.47;0.47;;;;;;;;;;5003641;28;20203;-76
2020/12/15 08:17:30;;;;;;;0.30;0.30;;;;;;;;;;5038747;28;20218;-75
2020/12/15 08:19:59;;;;;;;0.30;0.30;;;;;;;;;;5003485;28;20346;-75
2020/12/15 08:22:25;;;;;;;1.37;1.33;;;;;;;;;;4999244;28;20203;-75
2020/12/15 08:24:55;;;;;;;0.30;0.30;;;;;;;;;;5016959;28;20274;-75
2020/12/15 08:27:23;;;;;;;0.50;0.50;;;;;;;;;;4999390;28;20376;-76
2020/12/15 08:29:49;;;;;;;0.43;0.43;;;;;;;;;;5033888;28;20209;-75
2020/12/15 08:32:25;;;;;;;0.83;0.67;;;;;;;;;;5016303;28;20203;-75
2020/12/15 08:34:56;;;;;;;0.27;0.27;;;;;;;;;;5000670;28;20383;-75
2020/12/15 08:37:23;;;;;;;0.90;0.80;;;;;;;;;;5005797;28;20516;-75
2020/12/15 08:39:50;;;;;;;0.20;0.20;;;;;;;;;;4980956;28;20215;-74
2020/12/15 08:42:17;;;;;;;0.20;0.20;;;;;;;;;;5004373;28;20207;-78
2020/12/15 08:44:44;;;;;;;0.30;0.30;;;;;;;;;;5013097;28;20209;-69
2020/12/15 08:47:15;;;;;;;0.20;0.20;;;;;;;;;;5015972;28;20224;-69
2020/12/15 08:49:42;;;;;;;0.20;0.20;;;;;;;;;;5034186;28;20212;-70
2020/12/15 08:52:08;;;;;;;0.37;0.37;;;;;;;;;;5001811;28;20274;-70
2020/12/15 08:54:40;;;;;;;0.40;0.40;;;;;;;;;;5015610;28;20206;-70
2020/12/15 08:57:11;;;;;;;0.30;0.30;;;;;;;;;;5000121;28;20259;-79
2020/12/15 08:59:39;;;;;;;0.20;0.20;;;;;;;;;;5003080;28;20245;-77
2020/12/15 09:02:05;;;;;;;0.97;0.97;;;;;;;;;;4982375;28;20199;-77
2020/12/15 09:04:31;;;;;;;0.20;0.20;;;;;;;;;;5004260;28;20227;-76
2020/12/15 09:06:58;;;;;;;0.20;0.20;;;;;;;;;;5015644;28;20194;-75
2020/12/15 09:09:27;;;;;;;0.67;0.67;;;;;;;;;;5002347;28;20490;-76
2020/12/15 09:11:55;;;;;;;1.27;1.27;;;;;;;;;;5014507;28;20479;-75
2020/12/15 09:14:21;;;;;;;0.20;0.20;;;;;;;;;;5028676;28;20261;-75
2020/12/15 09:16:48;;;;;;;0.87;0.87;;;;;;;;;;5001864;28;20316;-76
2020/12/15 09:19:16;;;;;;;0.20;0.20;;;;;;;;;;5030968;28;20202;-75
2020/12/15 09:21:42;;;;;;;1.60;1.50;;;;;;;;;;5001391;28;20203;-75
2020/12/15 09:24:09;;;;;;;3.03;2.93;;;;;;;;;;5002197;28;20396;-75
2020/12/15 09:26:37;;;;;;;0.87;0.87;;;;;;;;;;5003339;28;20194;-75
2020/12/15 09:29:07;;;;;;;0.27;0.27;;;;;;;;;;5016704;28;20208;-75
2020/12/15 09:31:34;;;;;;;0.20;0.20;;;;;;;;;;5002541;28;20358;-75
2020/12/15 09:34:01;;;;;;;0.20;0.20;;;;;;;;;;5014916;28;20210;-74
2020/12/15 09:36:27;;;;;;;0.50;0.50;;;;;;;;;;5001268;28;20222;-74
2020/12/15 09:38:54;;;;;;;0.17;0.17;;;;;;;;;;5000907;28;20269;-74
2020/12/15 09:41:20;;;;;;;0.20;0.20;;;;;;;;;;4999342;28;20364;-74
2020/12/15 09:46:23;;;;;;;0.20;0.20;;;;;;;;;;5175767;22;20495;-72
2020/12/15 09:48:49;;;;;;;0.87;0.87;;;;;;;;;;5047137;28;20395;-70
2020/12/15 09:51:17;;;;;;;0.40;0.40;;;;;;;;;;5065539;28;20220;-72
2020/12/15 09:53:44;;;;;;;0.10;0.10;;;;;;;;;;5061560;28;20250;-71
2020/12/15 10:05:18;;;;;;;0.20;0.20;;;;;;;;;;5006603;28;20174;-72
2020/12/15 10:07:46;;;;;;;0.83;0.83;;;;;;;;;;4972523;28;20223;-72
2020/12/15 10:10:16;;;;;;;0.40;0.40;;;;;;;;;;4970274;28;20494;-71
2020/12/15 10:12:42;;;;;;;0.20;0.20;;;;;;;;;;4993179;28;20215;-72
2020/12/15 10:15:10;;;;;;;3.93;3.73;;;;;;;;;;4970660;28;20291;-71
2020/12/15 10:17:36;;;;;;;0.40;0.40;;;;;;;;;;4988601;28;20200;-71
2020/12/15 10:20:03;;;;;;;0.50;0.50;;;;;;;;;;4991070;28;20238;-70
2020/12/15 10:22:30;;;;;;;0.10;0.10;;;;;;;;;;4978926;28;20209;-70
2020/12/15 10:24:58;;;;;;;0.20;0.20;;;;;;;;;;4966072;28;20451;-70
2020/12/15 10:27:24;;;;;;;0.10;0.10;;;;;;;;;;4969141;28;20540;-71
2020/12/15 10:29:51;;;;;;;1.30;1.30;;;;;;;;;;4966319;28;20206;-71
2020/12/15 10:32:17;;;;;;;1.70;0.93;;;;;;;;;;4972227;28;20547;-72
2020/12/15 10:34:45;;;;;;;0.30;0.30;;;;;;;;;;4987022;28;20221;-71
2020/12/15 10:37:12;;;;;;;0.47;0.47;;;;;;;;;;4976183;28;20203;-71
2020/12/15 10:39:39;;;;;;;0.40;0.40;;;;;;;;;;5007264;28;20281;-72
2020/12/15 10:42:06;;;;;;;2.20;2.10;;;;;;;;;;5025327;28;20524;-71
2020/12/15 10:44:33;;;;;;;0.40;0.40;;;;;;;;;;5004642;28;20522;-70
2020/12/15 10:47:00;;;;;;;0.17;0.17;;;;;;;;;;5053836;28;20233;-70
2020/12/15 10:49:27;;;;;;;0.30;0.30;;;;;;;;;;5020575;28;20228;-72
2020/12/15 10:51:54;;;;;;;4.87;1.37;;;;;;;;;;5047445;28;20276;-69
2020/12/15 10:54:20;;;;;;;0.20;0.20;;;;;;;;;;5022228;28;20230;-70
2020/12/15 10:56:47;;;;;;;1.63;1.53;;;;;;;;;;5029528;28;20218;-70
2020/12/15 10:59:14;;;;;;;0.20;0.20;;;;;;;;;;5042571;28;20209;-72
2020/12/15 11:01:40;;;;;;;1.40;1.17;;;;;;;;;;5023701;28;20231;-71
2020/12/15 11:04:07;;;;;;;0.20;0.20;;;;;;;;;;5045273;28;20205;-72
2020/12/15 11:06:36;;;;;;;0.20;0.20;;;;;;;;;;5023272;28;20225;-71
2020/12/15 11:09:03;;;;;;;0.20;0.20;;;;;;;;;;5036892;28;20258;-70
2020/12/15 11:11:30;;;;;;;1.03;1.03;;;;;;;;;;5038008;28;20328;-70
2020/12/15 11:13:56;;;;;;;0.20;0.20;;;;;;;;;;5026135;28;20199;-70
2020/12/15 11:16:23;;;;;;;0.10;0.10;;;;;;;;;;5041809;28;20198;-68
2020/12/15 11:18:50;;;;;;;1.30;1.20;;;;;;;;;;5026248;28;20240;-71
2020/12/15 11:21:16;;;;;;;0.20;0.20;;;;;;;;;;5026414;28;22229;-70
2020/12/15 11:23:43;;;;;;;0.20;0.20;;;;;;;;;;5043360;28;20483;-70
2020/12/15 11:26:10;;;;;;;3.13;0.87;;;;;;;;;;5029981;28;20267;-70
2020/12/15 11:28:36;;;;;;;0.13;0.13;;;;;;;;;;5041771;28;20422;-70
2020/12/15 11:31:04;;;;;;;0.20;0.20;;;;;;;;;;5026691;28;20511;-71
2020/12/15 11:33:32;;;;;;;1.33;1.03;;;;;;;;;;5030340;28;20279;-71
2020/12/15 11:35:58;;;;;;;0.10;0.10;;;;;;;;;;5027968;28;20213;-71
2020/12/15 11:38:25;;;;;;;0.20;0.20;;;;;;;;;;5027957;28;20236;-71
2020/12/15 11:40:51;;;;;;;0.50;0.50;;;;;;;;;;5026855;28;20215;-72
2020/12/15 11:43:18;;;;;;;1.03;1.03;;;;;;;;;;5028762;28;20252;-71
2020/12/15 11:45:44;;;;;;;1.20;0.43;;;;;;;;;;5027916;28;20243;-72
2020/12/15 11:48:11;;;;;;;2.63;2.47;;;;;;;;;;5026873;28;20242;-68
2020/12/15 11:50:38;;;;;;;0.20;0.20;;;;;;;;;;5065590;28;20203;-73
2020/12/15 11:53:04;;;;;;;0.20;0.20;;;;;;;;;;5026606;28;20207;-72
2020/12/15 11:55:31;;;;;;;0.20;0.20;;;;;;;;;;5035747;28;20203;-70
2020/12/15 11:57:58;;;;;;;0.10;0.10;;;;;;;;;;5026292;28;20200;-70
2020/12/15 12:00:25;;;;;;;0.20;0.20;;;;;;;;;;5028308;28;20410;-70
2020/12/15 12:02:51;;;;;;;0.10;0.10;;;;;;;;;;5028403;28;20394;-71
2020/12/15 12:05:19;;;;;;;0.10;0.10;;;;;;;;;;5030599;28;20203;-70
2020/12/15 12:07:46;;;;;;;0.20;0.20;;;;;;;;;;5028406;28;20425;-71
2020/12/15 12:10:13;;;;;;;0.20;0.20;;;;;;;;;;5046129;28;20202;-71
2020/12/15 12:12:40;;;;;;;0.20;0.20;;;;;;;;;;5044480;28;20210;-71
2020/12/15 12:15:06;;;;;;;0.20;0.20;;;;;;;;;;5026736;28;20389;-71
2020/12/15 12:17:33;;;;;;;0.17;0.17;;;;;;;;;;5049048;28;20222;-72
2020/12/15 12:19:59;;;;;;;1.83;1.80;;;;;;;;;;5043528;28;20203;-71
2020/12/15 12:22:25;;;;;;;0.20;0.20;;;;;;;;;;5023408;28;20438;-71
2020/12/15 12:24:53;;;;;;;0.20;0.20;;;;;;;;;;5023793;28;20203;-71
2020/12/15 12:27:19;;;;;;;0.97;0.97;;;;;;;;;;5041325;28;20254;-72
2020/12/15 12:29:45;;;;;;;0.20;0.20;;;;;;;;;;5041178;28;20203;-72
2020/12/15 12:32:12;;;;;;;0.20;0.20;;;;;;;;;;5025189;28;20536;-71
2020/12/15 12:34:39;;;;;;;0.20;0.20;;;;;;;;;;5027614;28;20199;-71
2020/12/15 12:37:07;;;;;;;0.60;0.60;;;;;;;;;;5044080;28;20202;-71
2020/12/15 12:39:35;;;;;;;0.20;0.20;;;;;;;;;;5043437;28;20205;-72
2020/12/15 12:42:02;;;;;;;0.20;0.20;;;;;;;;;;5027153;28;20432;-71
2020/12/15 12:44:29;;;;;;;0.10;0.10;;;;;;;;;;5030413;28;20226;-73
2020/12/15 12:46:55;;;;;;;0.40;0.40;;;;;;;;;;5023308;28;20235;-72
2020/12/15 12:49:22;;;;;;;0.10;0.10;;;;;;;;;;5037142;28;20209;-72
2020/12/15 12:51:49;;;;;;;0.50;0.50;;;;;;;;;;5024064;28;20202;-73
2020/12/15 12:54:15;;;;;;;0.10;0.10;;;;;;;;;;5024970;28;20214;-72
2020/12/15 12:56:42;;;;;;;0.73;0.73;;;;;;;;;;5032808;28;20199;-73
2020/12/15 12:59:10;;;;;;;0.20;0.20;;;;;;;;;;5027793;28;20497;-72
2020/12/15 13:01:36;;;;;;;0.10;0.10;;;;;;;;;;5025030;28;20509;-72
2020/12/15 13:04:03;;;;;;;0.20;0.20;;;;;;;;;;5025734;28;20442;-71
2020/12/15 13:06:29;;;;;;;1.70;1.70;;;;;;;;;;5043601;28;20202;-71
2020/12/15 13:08:56;;;;;;;0.20;0.20;;;;;;;;;;5037610;28;20213;-71
2020/12/15 13:11:22;;;;;;;1.70;0.73;;;;;;;;;;5026196;28;20490;-72
2020/12/15 13:13:49;;;;;;;1.60;1.33;;;;;;;;;;5045428;28;20208;-72
2020/12/15 13:16:16;;;;;;;0.30;0.30;;;;;;;;;;5043830;28;20199;-72
2020/12/15 13:18:42;;;;;;;0.20;0.20;;;;;;;;;;5025978;28;20199;-71
2020/12/15 13:21:09;;;;;;;1.23;1.23;;;;;;;;;;5039162;28;20203;-73
2020/12/15 13:23:35;;;;;;;0.97;0.97;;;;;;;;;;5029157;28;20340;-72
2020/12/15 13:26:02;;;;;;;2.43;2.10;;;;;;;;;;5042849;28;20509;-72
2020/12/15 13:28:28;;;;;;;0.20;0.20;;;;;;;;;;5032612;28;20221;-71
2020/12/15 13:30:55;;;;;;;0.20;0.20;;;;;;;;;;5043183;28;20301;-71
2020/12/15 13:33:23;;;;;;;0.10;0.10;;;;;;;;;;5026693;28;20349;-71
2020/12/15 13:35:49;;;;;;;0.10;0.10;;;;;;;;;;5025248;28;20206;-71
2020/12/15 13:38:16;;;;;;;0.20;0.20;;;;;;;;;;5028421;28;20224;-72
2020/12/15 13:40:42;;;;;;;0.20;0.20;;;;;;;;;;5028275;28;20248;-72
2020/12/15 13:43:08;;;;;;;0.20;0.20;;;;;;;;;;5043392;28;20233;-72
2020/12/15 13:45:35;;;;;;;0.13;0.13;;;;;;;;;;5025903;28;20513;-70
2020/12/15 13:48:01;;;;;;;0.20;0.20;;;;;;;;;;5024685;28;20246;-71
2020/12/15 13:50:29;;;;;;;0.17;0.17;;;;;;;;;;5025431;28;20206;-72
2020/12/15 13:52:55;;;;;;;0.20;0.20;;;;;;;;;;5019970;28;20507;-70
2020/12/15 13:55:22;;;;;;;1.93;1.90;;;;;;;;;;5044236;28;20260;-70
2020/12/15 13:57:49;;;;;;;3.40;1.23;;;;;;;;;;5024439;28;20199;-72
2020/12/15 14:00:15;;;;;;;0.20;0.20;;;;;;;;;;5021539;28;20508;-71
2020/12/15 14:02:41;;;;;;;0.50;0.50;;;;;;;;;;5035405;28;20211;-72
2020/12/15 14:05:08;;;;;;;0.20;0.20;;;;;;;;;;5039996;28;20210;-69
2020/12/15 14:07:35;;;;;;;0.30;0.30;;;;;;;;;;5024854;28;20218;-69
2020/12/15 14:10:03;;;;;;;0.20;0.20;;;;;;;;;;5025037;28;20243;-71
2020/12/15 14:12:30;;;;;;;0.20;0.20;;;;;;;;;;5026013;28;20236;-71
2020/12/15 14:14:57;;;;;;;0.20;0.20;;;;;;;;;;5037174;28;20513;-71
2020/12/15 14:17:24;;;;;;;0.20;0.20;;;;;;;;;;5028104;28;20385;-71
2020/12/15 14:19:50;;;;;;;0.20;0.20;;;;;;;;;;5024924;28;20552;-72
2020/12/15 14:22:17;;;;;;;0.17;0.17;;;;;;;;;;5021739;28;20198;-72
2020/12/15 14:24:45;;;;;;;0.20;0.20;;;;;;;;;;5027195;28;20273;-71
2020/12/15 14:27:11;;;;;;;0.10;0.10;;;;;;;;;;5026504;28;20225;-70
2020/12/15 14:29:38;;;;;;;0.20;0.20;;;;;;;;;;5021566;28;20434;-70
2020/12/15 14:32:04;;;;;;;0.10;0.10;;;;;;;;;;5022574;28;20211;-69
2020/12/15 14:34:31;;;;;;;0.20;0.20;;;;;;;;;;5017361;28;20203;-70
2020/12/15 14:36:58;;;;;;;0.20;0.20;;;;;;;;;;5039094;28;20200;-71
2020/12/15 14:39:24;;;;;;;0.17;0.17;;;;;;;;;;5026029;28;21058;-70
2020/12/15 14:41:52;;;;;;;0.53;0.53;;;;;;;;;;5026169;28;20200;-68
2020/12/15 14:44:18;;;;;;;0.20;0.20;;;;;;;;;;5031665;28;20260;-69
2020/12/15 14:46:48;;;;;;;0.30;0.30;;;;;;;;;;5024731;28;20215;-70
2020/12/15 14:49:15;;;;;;;0.20;0.20;;;;;;;;;;5024954;28;20202;-70
2020/12/15 14:51:46;;;;;;;0.20;0.20;;;;;;;;;;5037409;28;20203;-70
2020/12/15 14:54:13;;;;;;;0.50;0.50;;;;;;;;;;5038235;28;20478;-71